sensor_id;sensor_type;location;lat;lon;timestamp;P1;durP1;ratioP1;P2;durP2;ratioP2
77563;SDS011;66703;48.076;9.220;2023-08-06T00:01:12;7.22;;;6.38;;
77563;SDS011;66703;48.076;9.220;2023-08-06T00:03:40;6.97;;;5.18;;
77563;SDS011;66703;48.076;9.220;2023-08-06T00:09:52;6.38;;;5.45;;
77563;SDS011;66703;48.076;9.220;2023-08-06T00:12:23;5.55;;;4.75;;
77563;SDS011;66703;48.076;9.220;2023-08-06T00:14:52;6.55;;;6.05;;
77563;SDS011;66703;48.076;9.220;2023-08-06T00:17:20;4.88;;;4.32;;
77563;SDS011;66703;48.076;9.220;2023-08-06T00:19:48;5.07;;;4.53;;
77563;SDS011;66703;48.076;9.220;2023-08-06T00:22:14;4.57;;;4.18;;
77563;SDS011;66703;48.076;9.220;2023-08-06T00:24:39;5.07;;;4.65;;
77563;SDS011;66703;48.076;9.220;2023-08-06T00:27:05;5.03;;;4.63;;
77563;SDS011;66703;48.076;9.220;2023-08-06T00:29:30;6.57;;;4.70;;
77563;SDS011;66703;48.076;9.220;2023-08-06T00:31:56;5.10;;;4.60;;
77563;SDS011;66703;48.076;9.220;2023-08-06T00:34:21;6.72;;;4.13;;
77563;SDS011;66703;48.076;9.220;2023-08-06T00:36:47;5.30;;;4.80;;
77563;SDS011;66703;48.076;9.220;2023-08-06T00:39:15;4.95;;;4.55;;
77563;SDS011;66703;48.076;9.220;2023-08-06T00:41:41;4.90;;;4.40;;
77563;SDS011;66703;48.076;9.220;2023-08-06T00:44:06;4.95;;;4.47;;
77563;SDS011;66703;48.076;9.220;2023-08-06T00:46:32;4.63;;;4.22;;
77563;SDS011;66703;48.076;9.220;2023-08-06T00:48:59;5.18;;;4.63;;
77563;SDS011;66703;48.076;9.220;2023-08-06T00:51:25;5.53;;;5.05;;
77563;SDS011;66703;48.076;9.220;2023-08-06T00:53:50;5.20;;;4.70;;
77563;SDS011;66703;48.076;9.220;2023-08-06T00:56:17;7.32;;;5.25;;
77563;SDS011;66703;48.076;9.220;2023-08-06T00:58:46;5.15;;;4.75;;
77563;SDS011;66703;48.076;9.220;2023-08-06T01:01:11;6.63;;;6.00;;
77563;SDS011;66703;48.076;9.220;2023-08-06T01:03:37;7.50;;;4.57;;
77563;SDS011;66703;48.076;9.220;2023-08-06T01:06:02;4.88;;;4.45;;
77563;SDS011;66703;48.076;9.220;2023-08-06T01:16:55;5.20;;;4.57;;
77563;SDS011;66703;48.076;9.220;2023-08-06T01:19:23;7.10;;;6.43;;
77563;SDS011;66703;48.076;9.220;2023-08-06T01:21:49;5.30;;;4.80;;
77563;SDS011;66703;48.076;9.220;2023-08-06T01:24:15;5.80;;;5.30;;
77563;SDS011;66703;48.076;9.220;2023-08-06T01:26:54;6.25;;;5.53;;
77563;SDS011;66703;48.076;9.220;2023-08-06T01:29:28;8.23;;;5.60;;
77563;SDS011;66703;48.076;9.220;2023-08-06T01:31:55;6.53;;;5.40;;
77563;SDS011;66703;48.076;9.220;2023-08-06T01:34:25;6.07;;;5.25;;
77563;SDS011;66703;48.076;9.220;2023-08-06T01:36:54;6.30;;;5.32;;
77563;SDS011;66703;48.076;9.220;2023-08-06T01:39:19;5.82;;;5.10;;
77563;SDS011;66703;48.076;9.220;2023-08-06T01:41:49;6.22;;;5.72;;
77563;SDS011;66703;48.076;9.220;2023-08-06T01:44:20;7.82;;;7.22;;
77563;SDS011;66703;48.076;9.220;2023-08-06T01:47:14;6.68;;;5.68;;
77563;SDS011;66703;48.076;9.220;2023-08-06T01:49:44;5.72;;;4.82;;
77563;SDS011;66703;48.076;9.220;2023-08-06T01:52:28;6.90;;;5.50;;
77563;SDS011;66703;48.076;9.220;2023-08-06T01:55:03;5.10;;;4.63;;
77563;SDS011;66703;48.076;9.220;2023-08-06T01:57:50;4.38;;;3.92;;
77563;SDS011;66703;48.076;9.220;2023-08-06T02:00:29;4.90;;;4.35;;
77563;SDS011;66703;48.076;9.220;2023-08-06T02:02:57;5.57;;;4.35;;
77563;SDS011;66703;48.076;9.220;2023-08-06T02:05:25;6.93;;;6.22;;
77563;SDS011;66703;48.076;9.220;2023-08-06T02:07:55;5.50;;;5.00;;
77563;SDS011;66703;48.076;9.220;2023-08-06T02:10:21;6.85;;;5.05;;
77563;SDS011;66703;48.076;9.220;2023-08-06T02:12:51;5.80;;;4.63;;
77563;SDS011;66703;48.076;9.220;2023-08-06T02:15:17;6.35;;;5.75;;
77563;SDS011;66703;48.076;9.220;2023-08-06T02:17:42;5.18;;;4.10;;
77563;SDS011;66703;48.076;9.220;2023-08-06T02:20:08;5.00;;;3.97;;
77563;SDS011;66703;48.076;9.220;2023-08-06T02:22:34;4.47;;;3.80;;
77563;SDS011;66703;48.076;9.220;2023-08-06T02:24:59;3.65;;;3.35;;
77563;SDS011;66703;48.076;9.220;2023-08-06T02:27:26;4.15;;;3.85;;
77563;SDS011;66703;48.076;9.220;2023-08-06T02:29:54;4.68;;;4.28;;
77563;SDS011;66703;48.076;9.220;2023-08-06T02:32:19;3.83;;;3.47;;
77563;SDS011;66703;48.076;9.220;2023-08-06T02:34:45;6.05;;;4.13;;
77563;SDS011;66703;48.076;9.220;2023-08-06T02:37:13;4.68;;;4.28;;
77563;SDS011;66703;48.076;9.220;2023-08-06T02:39:38;5.22;;;3.78;;
77563;SDS011;66703;48.076;9.220;2023-08-06T02:42:07;4.50;;;3.83;;
77563;SDS011;66703;48.076;9.220;2023-08-06T02:44:33;4.75;;;3.50;;
77563;SDS011;66703;48.076;9.220;2023-08-06T02:46:59;4.95;;;3.50;;
77563;SDS011;66703;48.076;9.220;2023-08-06T02:49:25;7.55;;;6.80;;
77563;SDS011;66703;48.076;9.220;2023-08-06T02:51:53;3.63;;;3.33;;
77563;SDS011;66703;48.076;9.220;2023-08-06T02:54:21;5.13;;;3.63;;
77563;SDS011;66703;48.076;9.220;2023-08-06T02:56:47;3.65;;;3.35;;
77563;SDS011;66703;48.076;9.220;2023-08-06T02:59:13;4.68;;;3.88;;
77563;SDS011;66703;48.076;9.220;2023-08-06T03:01:38;5.15;;;4.20;;
77563;SDS011;66703;48.076;9.220;2023-08-06T03:04:06;4.47;;;3.95;;
77563;SDS011;66703;48.076;9.220;2023-08-06T03:06:35;5.82;;;5.25;;
77563;SDS011;66703;48.076;9.220;2023-08-06T03:09:01;6.75;;;4.32;;
77563;SDS011;66703;48.076;9.220;2023-08-06T03:11:26;5.53;;;4.55;;
77563;SDS011;66703;48.076;9.220;2023-08-06T03:13:52;4.50;;;4.10;;
77563;SDS011;66703;48.076;9.220;2023-08-06T03:16:17;4.30;;;3.90;;
77563;SDS011;66703;48.076;9.220;2023-08-06T03:18:46;5.47;;;4.07;;
77563;SDS011;66703;48.076;9.220;2023-08-06T03:21:11;5.07;;;3.95;;
77563;SDS011;66703;48.076;9.220;2023-08-06T03:23:37;4.13;;;3.78;;
77563;SDS011;66703;48.076;9.220;2023-08-06T03:26:07;3.78;;;3.47;;
77563;SDS011;66703;48.076;9.220;2023-08-06T03:28:35;5.22;;;4.60;;
77563;SDS011;66703;48.076;9.220;2023-08-06T03:31:06;4.00;;;3.40;;
77563;SDS011;66703;48.076;9.220;2023-08-06T03:33:32;6.15;;;5.47;;
77563;SDS011;66703;48.076;9.220;2023-08-06T03:36:04;4.93;;;4.00;;
77563;SDS011;66703;48.076;9.220;2023-08-06T03:38:33;6.70;;;6.10;;
77563;SDS011;66703;48.076;9.220;2023-08-06T03:41:06;5.28;;;4.07;;
77563;SDS011;66703;48.076;9.220;2023-08-06T03:43:32;6.75;;;4.00;;
77563;SDS011;66703;48.076;9.220;2023-08-06T03:45:57;4.45;;;4.05;;
77563;SDS011;66703;48.076;9.220;2023-08-06T03:48:25;7.18;;;4.38;;
77563;SDS011;66703;48.076;9.220;2023-08-06T03:50:53;4.57;;;4.15;;
77563;SDS011;66703;48.076;9.220;2023-08-06T03:53:19;6.00;;;4.30;;
77563;SDS011;66703;48.076;9.220;2023-08-06T03:55:49;5.32;;;4.40;;
77563;SDS011;66703;48.076;9.220;2023-08-06T03:58:19;4.78;;;3.53;;
77563;SDS011;66703;48.076;9.220;2023-08-06T04:00:45;4.00;;;3.67;;
77563;SDS011;66703;48.076;9.220;2023-08-06T04:03:28;5.53;;;3.80;;
77563;SDS011;66703;48.076;9.220;2023-08-06T04:06:28;6.10;;;4.15;;
77563;SDS011;66703;48.076;9.220;2023-08-06T04:09:02;4.30;;;3.90;;
77563;SDS011;66703;48.076;9.220;2023-08-06T04:11:46;5.57;;;5.18;;
77563;SDS011;66703;48.076;9.220;2023-08-06T04:14:24;5.75;;;5.25;;
77563;SDS011;66703;48.076;9.220;2023-08-06T04:17:04;7.00;;;4.50;;
77563;SDS011;66703;48.076;9.220;2023-08-06T04:19:45;4.32;;;4.00;;
77563;SDS011;66703;48.076;9.220;2023-08-06T04:22:27;5.40;;;4.53;;
77563;SDS011;66703;48.076;9.220;2023-08-06T04:24:53;5.18;;;4.38;;
77563;SDS011;66703;48.076;9.220;2023-08-06T04:27:21;5.47;;;4.60;;
77563;SDS011;66703;48.076;9.220;2023-08-06T04:29:46;5.03;;;4.63;;
77563;SDS011;66703;48.076;9.220;2023-08-06T04:32:12;6.25;;;4.75;;
77563;SDS011;66703;48.076;9.220;2023-08-06T04:34:38;5.50;;;5.00;;
77563;SDS011;66703;48.076;9.220;2023-08-06T04:37:03;8.38;;;7.88;;
77563;SDS011;66703;48.076;9.220;2023-08-06T04:39:35;5.00;;;4.57;;
77563;SDS011;66703;48.076;9.220;2023-08-06T04:42:01;3.95;;;3.08;;
77563;SDS011;66703;48.076;9.220;2023-08-06T04:44:26;3.05;;;2.83;;
77563;SDS011;66703;48.076;9.220;2023-08-06T04:46:52;3.28;;;3.05;;
77563;SDS011;66703;48.076;9.220;2023-08-06T04:49:20;4.13;;;3.78;;
77563;SDS011;66703;48.076;9.220;2023-08-06T04:51:46;4.22;;;3.85;;
77563;SDS011;66703;48.076;9.220;2023-08-06T04:54:11;3.53;;;3.22;;
77563;SDS011;66703;48.076;9.220;2023-08-06T04:56:37;3.38;;;3.08;;
77563;SDS011;66703;48.076;9.220;2023-08-06T04:59:02;5.63;;;3.67;;
77563;SDS011;66703;48.076;9.220;2023-08-06T05:01:28;3.10;;;2.80;;
77563;SDS011;66703;48.076;9.220;2023-08-06T05:03:53;4.68;;;3.30;;
77563;SDS011;66703;48.076;9.220;2023-08-06T05:06:19;5.18;;;4.80;;
77563;SDS011;66703;48.076;9.220;2023-08-06T05:08:44;4.53;;;3.40;;
77563;SDS011;66703;48.076;9.220;2023-08-06T05:11:10;2.83;;;2.50;;
77563;SDS011;66703;48.076;9.220;2023-08-06T05:13:35;3.00;;;2.80;;
77563;SDS011;66703;48.076;9.220;2023-08-06T05:16:00;3.35;;;3.05;;
77563;SDS011;66703;48.076;9.220;2023-08-06T05:18:26;3.08;;;2.78;;
77563;SDS011;66703;48.076;9.220;2023-08-06T05:20:51;4.40;;;4.03;;
77563;SDS011;66703;48.076;9.220;2023-08-06T05:23:20;7.13;;;3.00;;
77563;SDS011;66703;48.076;9.220;2023-08-06T05:25:45;4.78;;;3.95;;
77563;SDS011;66703;48.076;9.220;2023-08-06T05:28:10;4.50;;;4.15;;
77563;SDS011;66703;48.076;9.220;2023-08-06T05:30:39;3.58;;;3.22;;
77563;SDS011;66703;48.076;9.220;2023-08-06T05:33:05;4.25;;;3.85;;
77563;SDS011;66703;48.076;9.220;2023-08-06T05:35:31;4.97;;;4.53;;
77563;SDS011;66703;48.076;9.220;2023-08-06T05:37:56;4.32;;;3.15;;
77563;SDS011;66703;48.076;9.220;2023-08-06T05:40:22;3.28;;;2.90;;
77563;SDS011;66703;48.076;9.220;2023-08-06T05:42:47;3.50;;;3.03;;
77563;SDS011;66703;48.076;9.220;2023-08-06T05:45:12;4.90;;;3.15;;
77563;SDS011;66703;48.076;9.220;2023-08-06T05:47:38;3.30;;;3.00;;
77563;SDS011;66703;48.076;9.220;2023-08-06T05:50:03;2.88;;;2.60;;
77563;SDS011;66703;48.076;9.220;2023-08-06T05:52:29;3.17;;;2.83;;
77563;SDS011;66703;48.076;9.220;2023-08-06T05:54:54;3.50;;;2.42;;
77563;SDS011;66703;48.076;9.220;2023-08-06T05:57:20;3.10;;;2.50;;
77563;SDS011;66703;48.076;9.220;2023-08-06T05:59:45;2.65;;;2.10;;
77563;SDS011;66703;48.076;9.220;2023-08-06T06:02:11;3.10;;;2.90;;
77563;SDS011;66703;48.076;9.220;2023-08-06T06:04:36;3.95;;;2.20;;
77563;SDS011;66703;48.076;9.220;2023-08-06T06:07:02;3.13;;;2.30;;
77563;SDS011;66703;48.076;9.220;2023-08-06T06:09:28;2.50;;;2.30;;
77563;SDS011;66703;48.076;9.220;2023-08-06T06:11:55;2.83;;;2.63;;
77563;SDS011;66703;48.076;9.220;2023-08-06T06:14:21;3.17;;;2.85;;
77563;SDS011;66703;48.076;9.220;2023-08-06T06:16:46;4.03;;;2.30;;
77563;SDS011;66703;48.076;9.220;2023-08-06T06:19:12;2.67;;;2.47;;
77563;SDS011;66703;48.076;9.220;2023-08-06T06:21:38;3.58;;;3.28;;
77563;SDS011;66703;48.076;9.220;2023-08-06T06:24:04;4.00;;;2.72;;
77563;SDS011;66703;48.076;9.220;2023-08-06T06:26:30;2.92;;;2.38;;
77563;SDS011;66703;48.076;9.220;2023-08-06T06:28:58;2.63;;;2.42;;
77563;SDS011;66703;48.076;9.220;2023-08-06T06:31:23;2.35;;;2.10;;
77563;SDS011;66703;48.076;9.220;2023-08-06T06:33:48;2.65;;;2.45;;
77563;SDS011;66703;48.076;9.220;2023-08-06T06:36:14;3.30;;;3.10;;
77563;SDS011;66703;48.076;9.220;2023-08-06T06:38:40;1.95;;;1.80;;
77563;SDS011;66703;48.076;9.220;2023-08-06T06:41:05;2.47;;;2.25;;
77563;SDS011;66703;48.076;9.220;2023-08-06T06:43:30;3.38;;;2.53;;
77563;SDS011;66703;48.076;9.220;2023-08-06T06:45:56;2.58;;;2.25;;
77563;SDS011;66703;48.076;9.220;2023-08-06T06:48:23;4.15;;;3.88;;
77563;SDS011;66703;48.076;9.220;2023-08-06T06:50:54;2.22;;;2.13;;
77563;SDS011;66703;48.076;9.220;2023-08-06T06:53:21;3.53;;;2.50;;
77563;SDS011;66703;48.076;9.220;2023-08-06T06:55:52;1.90;;;1.70;;
77563;SDS011;66703;48.076;9.220;2023-08-06T06:58:21;2.35;;;2.15;;
77563;SDS011;66703;48.076;9.220;2023-08-06T07:00:47;2.72;;;2.53;;
77563;SDS011;66703;48.076;9.220;2023-08-06T07:03:14;3.17;;;2.00;;
77563;SDS011;66703;48.076;9.220;2023-08-06T07:05:43;2.50;;;2.00;;
77563;SDS011;66703;48.076;9.220;2023-08-06T07:08:12;2.90;;;1.70;;
77563;SDS011;66703;48.076;9.220;2023-08-06T07:10:40;1.73;;;1.63;;
77563;SDS011;66703;48.076;9.220;2023-08-06T07:13:08;2.05;;;1.85;;
77563;SDS011;66703;48.076;9.220;2023-08-06T07:15:44;1.88;;;1.77;;
77563;SDS011;66703;48.076;9.220;2023-08-06T07:18:09;1.95;;;1.65;;
77563;SDS011;66703;48.076;9.220;2023-08-06T07:20:36;2.40;;;2.28;;
77563;SDS011;66703;48.076;9.220;2023-08-06T07:23:07;1.83;;;1.67;;
77563;SDS011;66703;48.076;9.220;2023-08-06T07:25:38;2.40;;;2.03;;
77563;SDS011;66703;48.076;9.220;2023-08-06T07:28:11;1.95;;;1.63;;
77563;SDS011;66703;48.076;9.220;2023-08-06T07:30:40;1.73;;;1.63;;
77563;SDS011;66703;48.076;9.220;2023-08-06T07:33:06;1.90;;;1.73;;
77563;SDS011;66703;48.076;9.220;2023-08-06T07:35:31;2.35;;;1.85;;
77563;SDS011;66703;48.076;9.220;2023-08-06T07:38:00;1.83;;;1.73;;
77563;SDS011;66703;48.076;9.220;2023-08-06T07:40:26;1.60;;;1.50;;
77563;SDS011;66703;48.076;9.220;2023-08-06T07:42:51;2.03;;;1.92;;
77563;SDS011;66703;48.076;9.220;2023-08-06T07:45:18;3.15;;;3.05;;
77563;SDS011;66703;48.076;9.220;2023-08-06T07:47:43;3.78;;;1.60;;
77563;SDS011;66703;48.076;9.220;2023-08-06T07:50:09;1.80;;;1.70;;
77563;SDS011;66703;48.076;9.220;2023-08-06T07:52:36;2.08;;;1.98;;
77563;SDS011;66703;48.076;9.220;2023-08-06T07:55:01;2.25;;;1.65;;
77563;SDS011;66703;48.076;9.220;2023-08-06T07:57:35;2.10;;;1.90;;
77563;SDS011;66703;48.076;9.220;2023-08-06T08:00:06;1.83;;;1.73;;
77563;SDS011;66703;48.076;9.220;2023-08-06T08:02:32;2.30;;;2.20;;
77563;SDS011;66703;48.076;9.220;2023-08-06T08:05:03;2.08;;;1.90;;
77563;SDS011;66703;48.076;9.220;2023-08-06T08:07:33;3.78;;;3.58;;
77563;SDS011;66703;48.076;9.220;2023-08-06T08:09:58;1.80;;;1.55;;
77563;SDS011;66703;48.076;9.220;2023-08-06T08:12:27;3.38;;;3.22;;
77563;SDS011;66703;48.076;9.220;2023-08-06T08:14:54;1.70;;;1.60;;
77563;SDS011;66703;48.076;9.220;2023-08-06T08:17:19;3.25;;;1.95;;
77563;SDS011;66703;48.076;9.220;2023-08-06T08:19:47;1.58;;;1.48;;
77563;SDS011;66703;48.076;9.220;2023-08-06T08:22:12;1.60;;;1.50;;
77563;SDS011;66703;48.076;9.220;2023-08-06T08:24:38;3.05;;;2.10;;
77563;SDS011;66703;48.076;9.220;2023-08-06T08:27:03;1.73;;;1.63;;
77563;SDS011;66703;48.076;9.220;2023-08-06T08:29:29;1.85;;;1.73;;
77563;SDS011;66703;48.076;9.220;2023-08-06T08:31:54;2.53;;;1.80;;
77563;SDS011;66703;48.076;9.220;2023-08-06T08:34:19;1.95;;;1.52;;
77563;SDS011;66703;48.076;9.220;2023-08-06T08:36:51;1.30;;;1.20;;
77563;SDS011;66703;48.076;9.220;2023-08-06T08:39:19;3.75;;;1.63;;
77563;SDS011;66703;48.076;9.220;2023-08-06T08:41:44;2.47;;;2.03;;
77563;SDS011;66703;48.076;9.220;2023-08-06T08:44:10;1.95;;;1.85;;
77563;SDS011;66703;48.076;9.220;2023-08-06T08:46:36;1.63;;;1.52;;
77563;SDS011;66703;48.076;9.220;2023-08-06T08:49:03;1.98;;;1.88;;
77563;SDS011;66703;48.076;9.220;2023-08-06T08:51:30;3.67;;;1.85;;
77563;SDS011;66703;48.076;9.220;2023-08-06T08:53:58;2.30;;;2.10;;
77563;SDS011;66703;48.076;9.220;2023-08-06T08:56:55;1.95;;;1.85;;
77563;SDS011;66703;48.076;9.220;2023-08-06T08:59:29;3.20;;;2.22;;
77563;SDS011;66703;48.076;9.220;2023-08-06T09:01:55;1.77;;;1.42;;
77563;SDS011;66703;48.076;9.220;2023-08-06T09:04:20;1.92;;;1.83;;
77563;SDS011;66703;48.076;9.220;2023-08-06T09:06:48;1.92;;;1.83;;
77563;SDS011;66703;48.076;9.220;2023-08-06T09:09:17;1.50;;;1.40;;
77563;SDS011;66703;48.076;9.220;2023-08-06T09:14:13;1.60;;;1.50;;
77563;SDS011;66703;48.076;9.220;2023-08-06T09:16:41;1.55;;;1.45;;
77563;SDS011;66703;48.076;9.220;2023-08-06T09:19:08;2.08;;;1.95;;
77563;SDS011;66703;48.076;9.220;2023-08-06T09:21:36;1.65;;;1.55;;
77563;SDS011;66703;48.076;9.220;2023-08-06T09:24:07;1.10;;;1.10;;
77563;SDS011;66703;48.076;9.220;2023-08-06T09:26:39;2.65;;;2.40;;
77563;SDS011;66703;48.076;9.220;2023-08-06T09:29:06;3.40;;;3.30;;
77563;SDS011;66703;48.076;9.220;2023-08-06T09:31:33;1.60;;;1.50;;
77563;SDS011;66703;48.076;9.220;2023-08-06T09:34:19;1.90;;;1.80;;
77563;SDS011;66703;48.076;9.220;2023-08-06T09:36:49;2.83;;;2.72;;
77563;SDS011;66703;48.076;9.220;2023-08-06T09:39:27;1.40;;;1.30;;
77563;SDS011;66703;48.076;9.220;2023-08-06T09:41:57;2.88;;;1.50;;
77563;SDS011;66703;48.076;9.220;2023-08-06T09:44:27;1.52;;;1.42;;
77563;SDS011;66703;48.076;9.220;2023-08-06T09:46:57;2.13;;;1.60;;
77563;SDS011;66703;48.076;9.220;2023-08-06T09:49:28;1.90;;;1.80;;
77563;SDS011;66703;48.076;9.220;2023-08-06T09:52:06;1.13;;;1.08;;
77563;SDS011;66703;48.076;9.220;2023-08-06T09:54:35;1.20;;;1.10;;
77563;SDS011;66703;48.076;9.220;2023-08-06T09:57:02;1.25;;;1.17;;
77563;SDS011;66703;48.076;9.220;2023-08-06T09:59:28;1.30;;;1.20;;
77563;SDS011;66703;48.076;9.220;2023-08-06T10:01:55;1.40;;;1.30;;
77563;SDS011;66703;48.076;9.220;2023-08-06T10:04:21;1.63;;;1.52;;
77563;SDS011;66703;48.076;9.220;2023-08-06T10:06:47;1.40;;;1.33;;
77563;SDS011;66703;48.076;9.220;2023-08-06T10:09:13;1.38;;;1.27;;
77563;SDS011;66703;48.076;9.220;2023-08-06T10:11:39;1.63;;;1.52;;
77563;SDS011;66703;48.076;9.220;2023-08-06T10:14:11;1.40;;;1.30;;
77563;SDS011;66703;48.076;9.220;2023-08-06T10:16:38;1.35;;;1.23;;
77563;SDS011;66703;48.076;9.220;2023-08-06T10:19:05;1.55;;;1.45;;
77563;SDS011;66703;48.076;9.220;2023-08-06T10:21:32;1.80;;;1.70;;
77563;SDS011;66703;48.076;9.220;2023-08-06T10:23:58;1.60;;;1.50;;
77563;SDS011;66703;48.076;9.220;2023-08-06T10:26:26;2.83;;;2.55;;
77563;SDS011;66703;48.076;9.220;2023-08-06T10:28:52;1.40;;;1.40;;
77563;SDS011;66703;48.076;9.220;2023-08-06T10:31:18;1.30;;;1.20;;
77563;SDS011;66703;48.076;9.220;2023-08-06T10:33:45;1.33;;;1.23;;
77563;SDS011;66703;48.076;9.220;2023-08-06T10:36:12;1.25;;;1.15;;
77563;SDS011;66703;48.076;9.220;2023-08-06T10:38:49;0.93;;;0.93;;
77563;SDS011;66703;48.076;9.220;2023-08-06T10:41:36;0.88;;;0.88;;
77563;SDS011;66703;48.076;9.220;2023-08-06T10:44:10;3.50;;;3.28;;
77563;SDS011;66703;48.076;9.220;2023-08-06T10:46:36;1.58;;;1.48;;
77563;SDS011;66703;48.076;9.220;2023-08-06T10:49:04;1.77;;;1.67;;
77563;SDS011;66703;48.076;9.220;2023-08-06T10:51:30;1.48;;;1.38;;
77563;SDS011;66703;48.076;9.220;2023-08-06T10:53:55;1.08;;;1.08;;
77563;SDS011;66703;48.076;9.220;2023-08-06T10:56:23;2.35;;;2.25;;
77563;SDS011;66703;48.076;9.220;2023-08-06T10:58:51;1.40;;;1.30;;
77563;SDS011;66703;48.076;9.220;2023-08-06T11:01:18;1.58;;;1.48;;
77563;SDS011;66703;48.076;9.220;2023-08-06T11:03:44;1.20;;;1.10;;
77563;SDS011;66703;48.076;9.220;2023-08-06T11:06:11;1.05;;;1.05;;
77563;SDS011;66703;48.076;9.220;2023-08-06T11:08:51;1.27;;;1.17;;
77563;SDS011;66703;48.076;9.220;2023-08-06T11:11:18;1.20;;;1.20;;
77563;SDS011;66703;48.076;9.220;2023-08-06T11:13:44;1.33;;;1.27;;
77563;SDS011;66703;48.076;9.220;2023-08-06T11:16:12;1.00;;;1.00;;
77563;SDS011;66703;48.076;9.220;2023-08-06T11:18:39;1.13;;;1.10;;
77563;SDS011;66703;48.076;9.220;2023-08-06T11:21:05;1.45;;;1.45;;
77563;SDS011;66703;48.076;9.220;2023-08-06T11:23:30;2.17;;;2.03;;
77563;SDS011;66703;48.076;9.220;2023-08-06T11:25:56;1.00;;;1.00;;
77563;SDS011;66703;48.076;9.220;2023-08-06T11:28:22;1.30;;;1.20;;
77563;SDS011;66703;48.076;9.220;2023-08-06T11:30:51;1.17;;;1.17;;
77563;SDS011;66703;48.076;9.220;2023-08-06T11:33:23;1.40;;;1.30;;
77563;SDS011;66703;48.076;9.220;2023-08-06T11:35:53;1.23;;;1.20;;
77563;SDS011;66703;48.076;9.220;2023-08-06T11:38:19;1.15;;;1.13;;
77563;SDS011;66703;48.076;9.220;2023-08-06T11:40:45;1.60;;;1.50;;
77563;SDS011;66703;48.076;9.220;2023-08-06T11:43:12;1.38;;;1.27;;
77563;SDS011;66703;48.076;9.220;2023-08-06T11:45:40;1.15;;;1.10;;
77563;SDS011;66703;48.076;9.220;2023-08-06T11:48:06;1.50;;;1.40;;
77563;SDS011;66703;48.076;9.220;2023-08-06T11:53:01;1.00;;;1.00;;
77563;SDS011;66703;48.076;9.220;2023-08-06T11:55:28;1.30;;;1.20;;
77563;SDS011;66703;48.076;9.220;2023-08-06T11:57:54;1.08;;;1.08;;
77563;SDS011;66703;48.076;9.220;2023-08-06T12:00:20;1.17;;;1.17;;
77563;SDS011;66703;48.076;9.220;2023-08-06T12:02:49;1.42;;;1.33;;
77563;SDS011;66703;48.076;9.220;2023-08-06T12:05:19;1.48;;;1.38;;
77563;SDS011;66703;48.076;9.220;2023-08-06T12:07:49;2.65;;;1.10;;
77563;SDS011;66703;48.076;9.220;2023-08-06T12:10:18;1.58;;;1.48;;
77563;SDS011;66703;48.076;9.220;2023-08-06T12:12:47;1.92;;;1.83;;
77563;SDS011;66703;48.076;9.220;2023-08-06T12:15:13;2.03;;;1.92;;
77563;SDS011;66703;48.076;9.220;2023-08-06T12:17:59;1.75;;;1.48;;
77563;SDS011;66703;48.076;9.220;2023-08-06T12:20:25;1.65;;;1.45;;
77563;SDS011;66703;48.076;9.220;2023-08-06T12:22:51;2.00;;;1.48;;
77563;SDS011;66703;48.076;9.220;2023-08-06T12:25:30;1.48;;;1.20;;
77563;SDS011;66703;48.076;9.220;2023-08-06T12:27:59;1.50;;;1.40;;
77563;SDS011;66703;48.076;9.220;2023-08-06T12:30:26;1.20;;;1.20;;
77563;SDS011;66703;48.076;9.220;2023-08-06T12:32:51;3.17;;;2.47;;
77563;SDS011;66703;48.076;9.220;2023-08-06T12:35:17;1.35;;;1.25;;
77563;SDS011;66703;48.076;9.220;2023-08-06T12:37:42;2.38;;;1.25;;
77563;SDS011;66703;48.076;9.220;2023-08-06T12:40:09;1.25;;;1.25;;
77563;SDS011;66703;48.076;9.220;2023-08-06T12:42:35;1.90;;;1.80;;
77563;SDS011;66703;48.076;9.220;2023-08-06T12:45:00;1.65;;;1.55;;
77563;SDS011;66703;48.076;9.220;2023-08-06T12:47:26;1.45;;;1.45;;
77563;SDS011;66703;48.076;9.220;2023-08-06T12:49:51;1.60;;;1.50;;
77563;SDS011;66703;48.076;9.220;2023-08-06T12:52:18;2.03;;;1.83;;
77563;SDS011;66703;48.076;9.220;2023-08-06T12:54:44;1.40;;;1.30;;
77563;SDS011;66703;48.076;9.220;2023-08-06T12:57:11;1.85;;;1.70;;
77563;SDS011;66703;48.076;9.220;2023-08-06T12:59:36;1.58;;;1.48;;
77563;SDS011;66703;48.076;9.220;2023-08-06T13:02:02;1.55;;;1.45;;
77563;SDS011;66703;48.076;9.220;2023-08-06T13:04:27;1.65;;;1.55;;
77563;SDS011;66703;48.076;9.220;2023-08-06T13:06:53;1.33;;;1.23;;
77563;SDS011;66703;48.076;9.220;2023-08-06T13:09:18;1.23;;;1.23;;
77563;SDS011;66703;48.076;9.220;2023-08-06T13:11:44;2.28;;;2.17;;
77563;SDS011;66703;48.076;9.220;2023-08-06T13:14:22;1.25;;;1.15;;
77563;SDS011;66703;48.076;9.220;2023-08-06T13:16:48;1.33;;;1.23;;
77563;SDS011;66703;48.076;9.220;2023-08-06T13:19:13;2.05;;;1.23;;
77563;SDS011;66703;48.076;9.220;2023-08-06T13:26:40;1.00;;;1.00;;
77563;SDS011;66703;48.076;9.220;2023-08-06T13:29:05;0.90;;;0.90;;
77563;SDS011;66703;48.076;9.220;2023-08-06T13:31:32;1.20;;;1.10;;
77563;SDS011;66703;48.076;9.220;2023-08-06T13:33:57;1.00;;;1.00;;
77563;SDS011;66703;48.076;9.220;2023-08-06T13:36:23;1.33;;;1.33;;
77563;SDS011;66703;48.076;9.220;2023-08-06T13:39:08;0.90;;;0.90;;
77563;SDS011;66703;48.076;9.220;2023-08-06T13:41:34;1.38;;;1.10;;
77563;SDS011;66703;48.076;9.220;2023-08-06T13:43:59;0.90;;;0.90;;
77563;SDS011;66703;48.076;9.220;2023-08-06T13:46:25;1.00;;;0.90;;
77563;SDS011;66703;48.076;9.220;2023-08-06T13:48:50;1.13;;;1.13;;
77563;SDS011;66703;48.076;9.220;2023-08-06T13:51:16;0.90;;;0.90;;
77563;SDS011;66703;48.076;9.220;2023-08-06T13:53:41;1.33;;;1.23;;
77563;SDS011;66703;48.076;9.220;2023-08-06T13:56:08;0.90;;;0.90;;
77563;SDS011;66703;48.076;9.220;2023-08-06T13:58:42;0.90;;;0.90;;
77563;SDS011;66703;48.076;9.220;2023-08-06T14:01:09;1.65;;;0.90;;
77563;SDS011;66703;48.076;9.220;2023-08-06T14:03:38;0.80;;;0.80;;
77563;SDS011;66703;48.076;9.220;2023-08-06T14:06:03;0.98;;;0.98;;
77563;SDS011;66703;48.076;9.220;2023-08-06T14:08:28;1.35;;;1.25;;
77563;SDS011;66703;48.076;9.220;2023-08-06T14:10:54;1.23;;;1.13;;
77563;SDS011;66703;48.076;9.220;2023-08-06T14:13:21;1.17;;;1.17;;
77563;SDS011;66703;48.076;9.220;2023-08-06T14:15:48;2.88;;;2.75;;
77563;SDS011;66703;48.076;9.220;2023-08-06T14:18:15;1.30;;;1.20;;
77563;SDS011;66703;48.076;9.220;2023-08-06T14:20:41;1.38;;;1.27;;
77563;SDS011;66703;48.076;9.220;2023-08-06T14:23:11;2.15;;;2.05;;
77563;SDS011;66703;48.076;9.220;2023-08-06T14:25:38;1.30;;;1.20;;
77563;SDS011;66703;48.076;9.220;2023-08-06T14:28:04;1.33;;;1.23;;
77563;SDS011;66703;48.076;9.220;2023-08-06T14:30:31;2.17;;;1.92;;
77563;SDS011;66703;48.076;9.220;2023-08-06T14:32:57;2.42;;;2.22;;
77563;SDS011;66703;48.076;9.220;2023-08-06T14:35:24;1.13;;;1.10;;
77563;SDS011;66703;48.076;9.220;2023-08-06T14:37:50;1.55;;;1.35;;
77563;SDS011;66703;48.076;9.220;2023-08-06T14:40:17;1.33;;;1.23;;
77563;SDS011;66703;48.076;9.220;2023-08-06T14:42:43;1.65;;;1.20;;
77563;SDS011;66703;48.076;9.220;2023-08-06T14:45:08;1.48;;;1.38;;
77563;SDS011;66703;48.076;9.220;2023-08-06T14:47:34;1.58;;;1.42;;
77563;SDS011;66703;48.076;9.220;2023-08-06T14:49:59;2.17;;;1.13;;
77563;SDS011;66703;48.076;9.220;2023-08-06T14:52:24;1.48;;;1.38;;
77563;SDS011;66703;48.076;9.220;2023-08-06T14:54:50;1.63;;;1.52;;
77563;SDS011;66703;48.076;9.220;2023-08-06T14:57:18;1.35;;;1.25;;
77563;SDS011;66703;48.076;9.220;2023-08-06T14:59:43;2.60;;;1.70;;
77563;SDS011;66703;48.076;9.220;2023-08-06T15:02:09;1.52;;;1.42;;
77563;SDS011;66703;48.076;9.220;2023-08-06T15:04:34;2.05;;;1.95;;
77563;SDS011;66703;48.076;9.220;2023-08-06T15:06:59;1.58;;;1.48;;
77563;SDS011;66703;48.076;9.220;2023-08-06T15:09:25;1.42;;;1.33;;
77563;SDS011;66703;48.076;9.220;2023-08-06T15:11:50;5.10;;;1.63;;
77563;SDS011;66703;48.076;9.220;2023-08-06T15:14:16;1.90;;;1.40;;